This is the latest recevied weather packets stored in our database for station/object N6RDS-8. If no packets are shown the sender has not sent any weather packets the latest 10 day(s).
| Time | Temp. | Humidity | Pressure | Rain* | Wind** | Luminosity | Snow |
|---|---|---|---|---|---|---|---|
| 1778199549 | 25.56° C | 23% | 1015 hPa | 0 mm | - | 72 W/m² | - |
| 1778199245 | 25.56° C | 22% | 1015.1 hPa | 0 mm | - | 71 W/m² | - |
| 1778198941 | 25.56° C | 22% | 1015 hPa | 0 mm | - | 70 W/m² | - |
| 1778198638 | 25.56° C | 23% | 1015 hPa | 0 mm | - | 73 W/m² | - |
| 1778198334 | 25.56° C | 22% | 1015 hPa | 0 mm | - | 81 W/m² | - |
| 1778198032 | 25.56° C | 22% | 1015.2 hPa | 0 mm | - | 87 W/m² | - |
| 1778197729 | 25.56° C | 22% | 1015.1 hPa | 0 mm | - | 90 W/m² | - |
| 1778197425 | 25.56° C | 22% | 1015.2 hPa | 0 mm | - | 87 W/m² | - |
| 1778197122 | 26.11° C | 22% | 1015.1 hPa | 0 mm | - | 86 W/m² | - |
| 1778196820 | 26.11° C | 22% | 1015 hPa | 0 mm | - | 83 W/m² | - |
| 1778196518 | 26.11° C | 22% | 1015.2 hPa | 0 mm | - | 73 W/m² | - |
| 1778196214 | 26.11° C | 22% | 1015.1 hPa | 0 mm | - | 66 W/m² | - |
| 1778195912 | 26.11° C | 21% | 1015.1 hPa | 0 mm | - | 62 W/m² | - |
| 1778195608 | 26.11° C | 21% | 1015 hPa | 0 mm | - | 58 W/m² | - |
| 1778195304 | 26.67° C | 21% | 1014.9 hPa | 0 mm | - | 61 W/m² | - |
| 1778195001 | 26.67° C | 21% | 1015 hPa | 0 mm | - | 68 W/m² | - |
| 1778194702 | 26.67° C | 20% | 1015.1 hPa | 0 mm | - | 67 W/m² | - |
| 1778194397 | 26.67° C | 20% | 1014.9 hPa | 0 mm | - | 66 W/m² | - |
| 1778194093 | 26.67° C | 20% | 1014.9 hPa | 0 mm | - | 67 W/m² | - |
| 1778193791 | 27.22° C | 20% | 1014.9 hPa | 0 mm | - | 72 W/m² | - |
| 1778193486 | 27.22° C | 20% | 1014.9 hPa | 0 mm | - | 85 W/m² | - |
| 1778193183 | 27.78° C | 20% | 1015 hPa | 0 mm | - | 110 W/m² | - |
| 1778192880 | 28.89° C | 20% | 1015 hPa | 0 mm | - | 153 W/m² | - |
| 1778192576 | 29.44° C | 20% | 1015.1 hPa | 0 mm | - | 444 W/m² | - |
| 1778192273 | 30.56° C | 18% | 1015.2 hPa | 0 mm | - | 668 W/m² | - |
* Rain latest hour (hover to see other rain measurements)
** Current wind speed in m/s (hover to see current wind gust speed)